Salt Flat, TX (79847)

4:24 AM MDT on October 22, 2014 (GMT -0600)
APRSWXNET Dellcity TX US | Change Station
CLOSE
Current Station
Personal Weather Station
Location: Salt Flat, TX
Elevation: 3690 ft
Nearby Weather Stations

Elev 3690 ft 31.73 °N, 104.93 °W | Updated 21 minutes ago

Mostly Cloudy
Mostly Cloudy
57 °F
Feels Like 57 °F
N
0
Wind Variable Wind from ENE
Gusts 2.0 mph

Today
High -- | Low -- °F
--% Chance of Precip.
Yesterday
High -- | Low -- °F
Precip. -- in
7:08 AM 6:20 PM
Waning Crescent, 2% visible
Pressure 30.00 in
Visibility 10.0 miles
Clouds Clear
Dew Point 53 °F
Humidity 88%
Rainfall 0.01 in
Snow Depth Not available.
UV 0 out of 12
Pollen 4.70 out of 12
Air Quality Not available.
Flu Activity Sporadic
METAR KGDP 220951Z AUTO 20005KT 10SM CLR 13/12 A3015 RMK AO2 SLP159 T01280117 $

More Conditions Fewer Conditions

Pressure 30.00 in
Visibility 10.0 miles
Clouds Clear
Dew Point 53 °F
Humidity 88%
Rainfall 0.01 in
Snow Depth Not available.
UV 0 out of 12
Pollen 4.70 out of 12
Air Quality Not available.
Flu Activity Sporadic
METAR KGDP 220951Z AUTO 20005KT 10SM CLR 13/12 A3015 RMK AO2 SLP159 T01280117 $

More Conditions Fewer Conditions

10-Day Weather Forecast

Almanac

Astronomy

Oct. 22, 2014 Rise Set
Actual Time 7:08 AM MDT 6:20 PM MDT
Civil Twilight 6:43 AM MDT 6:45 PM MDT
Nautical Twilight 6:15 AM MDT 7:13 PM MDT
Astronomical Twilight 5:47 AM MDT 7:41 PM MDT
Moon 5:57 AM MDT 5:45 PM MDT
Length of Visible Light 12h 01m
Length of Day
11h 11m
Tomorrow will be 1m 48s shorter.
Waning Crescent, 2% of the Moon is Illuminated
Today
Waning Crescent
Oct 23
New
Oct 30
First Quarter
Nov 6
Full
Nov 14
Last Quarter

Today's Extremes

State Highs State Lows

Community

WunderPhotos

Upload Photos

1,763,902 photos uploaded!

Nearby

Snow Depth

Station Depth Elevation
No new snow has been reported.

Earthquake Activity

City Distance Mag. Time & Date
No recent earthquake activity has been reported nearby.
Minimum magnitude displayed is 2.5.

Coastal Water Temperatures

Place Temperature
No Stations Reporting

Nearby Weather Stations